createdAt,value
2022-10-15T04:58:01.071Z,100580.63
2022-10-15T05:01:07.657Z,100573.09
2022-10-15T05:04:12.329Z,100586.03
2022-10-15T05:07:15.532Z,100576.84
2022-10-15T05:10:18.431Z,100578.88
2022-10-15T05:13:21.780Z,100587.47
2022-10-15T05:16:27.513Z,100592.22
2022-10-15T05:19:30.414Z,100590.03
2022-10-15T05:22:33.107Z,100593.25
2022-10-15T05:25:37.034Z,100597.13
2022-10-15T05:28:39.873Z,100599.50
2022-10-15T05:31:42.726Z,100594.81
2022-10-15T05:34:46.823Z,100595.31
2022-10-15T05:37:49.891Z,100590.66
2022-10-15T05:40:53.161Z,100589.16
2022-10-15T05:43:58.715Z,100587.00
2022-10-15T05:47:01.291Z,100581.12
2022-10-15T05:50:08.153Z,100588.88
2022-10-15T05:53:15.581Z,100588.56
2022-10-15T05:56:19.245Z,100588.41
2022-10-15T05:59:21.795Z,100591.94
2022-10-15T06:02:24.829Z,100603.19
2022-10-15T06:05:27.944Z,100601.88
2022-10-15T06:08:31.547Z,100609.28
2022-10-15T06:11:36.456Z,100609.47
2022-10-15T06:14:38.992Z,100610.69
2022-10-15T06:17:42.453Z,100622.28
2022-10-15T06:20:51.451Z,100619.97
2022-10-15T06:23:54.208Z,100628.00
2022-10-15T06:26:59.372Z,100619.94
2022-10-15T06:30:02.541Z,100626.69
2022-10-15T06:33:05.173Z,100628.00
2022-10-15T06:36:10.301Z,100632.88
2022-10-15T06:39:12.725Z,100634.06
2022-10-15T06:42:17.164Z,100631.38
2022-10-15T06:45:23.061Z,100638.28
2022-10-15T06:48:26.224Z,100638.22
2022-10-15T06:51:28.690Z,100630.97
2022-10-15T06:54:31.491Z,100638.00
2022-10-15T06:57:34.101Z,100649.75
2022-10-15T07:00:36.958Z,100651.53
2022-10-15T07:03:41.811Z,100654.44
2022-10-15T07:06:44.617Z,100655.88
2022-10-15T07:09:47.608Z,100655.84
2022-10-15T07:12:50.434Z,100657.44
2022-10-15T07:15:53.929Z,100663.06
2022-10-15T07:18:56.679Z,100661.91
2022-10-15T07:21:59.155Z,100666.00
2022-10-15T07:25:02.164Z,100664.31
2022-10-15T07:28:05.463Z,100662.50
2022-10-15T07:31:08.263Z,100662.12
2022-10-15T07:34:10.756Z,100652.16
2022-10-15T07:37:13.487Z,100652.72
2022-10-15T07:40:17.851Z,100648.81
2022-10-15T07:43:20.635Z,100647.59
2022-10-15T07:46:23.199Z,100647.44
2022-10-15T07:49:29.479Z,100649.44
2022-10-15T07:52:31.957Z,100649.34
2022-10-15T07:55:35.328Z,100653.09
2022-10-15T07:58:38.678Z,100654.53
